sensor_id;sensor_type;location;lat;lon;timestamp;pressure;altitude;pressure_sealevel;temperature
42197;BMP280;27866;48.146;17.098;2023-03-23T00:00:03;99270.13;;;13.65
42197;BMP280;27866;48.146;17.098;2023-03-23T00:04:22;99281.06;;;13.60
42197;BMP280;27866;48.146;17.098;2023-03-23T00:08:38;99277.34;;;13.53
42197;BMP280;27866;48.146;17.098;2023-03-23T00:12:55;99277.88;;;13.47
42197;BMP280;27866;48.146;17.098;2023-03-23T00:17:09;99273.50;;;13.47
42197;BMP280;27866;48.146;17.098;2023-03-23T00:21:29;99277.06;;;13.47
42197;BMP280;27866;48.146;17.098;2023-03-23T00:25:50;99277.19;;;13.45
42197;BMP280;27866;48.146;17.098;2023-03-23T00:30:02;99281.69;;;13.43
42197;BMP280;27866;48.146;17.098;2023-03-23T00:34:16;99278.69;;;13.47
42197;BMP280;27866;48.146;17.098;2023-03-23T00:38:30;99282.38;;;13.45
42197;BMP280;27866;48.146;17.098;2023-03-23T00:42:41;99287.19;;;13.40
42197;BMP280;27866;48.146;17.098;2023-03-23T00:46:54;99280.59;;;13.36
42197;BMP280;27866;48.146;17.098;2023-03-23T00:51:07;99277.06;;;13.37
42197;BMP280;27866;48.146;17.098;2023-03-23T00:55:24;99278.00;;;13.36
42197;BMP280;27866;48.146;17.098;2023-03-23T00:59:36;99272.78;;;13.36
42197;BMP280;27866;48.146;17.098;2023-03-23T01:03:47;99266.38;;;13.40
42197;BMP280;27866;48.146;17.098;2023-03-23T01:07:59;99262.81;;;13.41
42197;BMP280;27866;48.146;17.098;2023-03-23T01:12:11;99255.56;;;13.35
42197;BMP280;27866;48.146;17.098;2023-03-23T01:16:24;99255.13;;;13.40
42197;BMP280;27866;48.146;17.098;2023-03-23T01:20:36;99253.75;;;13.36
42197;BMP280;27866;48.146;17.098;2023-03-23T01:24:48;99266.91;;;13.34
42197;BMP280;27866;48.146;17.098;2023-03-23T01:28:59;99264.13;;;13.27
42197;BMP280;27866;48.146;17.098;2023-03-23T01:33:11;99268.25;;;13.29
42197;BMP280;27866;48.146;17.098;2023-03-23T01:37:22;99267.97;;;13.23
42197;BMP280;27866;48.146;17.098;2023-03-23T01:41:38;99264.66;;;13.21
42197;BMP280;27866;48.146;17.098;2023-03-23T01:45:55;99267.69;;;13.17
42197;BMP280;27866;48.146;17.098;2023-03-23T01:50:07;99273.41;;;13.11
42197;BMP280;27866;48.146;17.098;2023-03-23T01:54:20;99267.38;;;13.10
42197;BMP280;27866;48.146;17.098;2023-03-23T01:58:34;99263.25;;;13.08
42197;BMP280;27866;48.146;17.098;2023-03-23T02:02:48;99262.84;;;13.03
42197;BMP280;27866;48.146;17.098;2023-03-23T02:07:02;99264.06;;;12.99
42197;BMP280;27866;48.146;17.098;2023-03-23T02:11:16;99266.09;;;12.96
42197;BMP280;27866;48.146;17.098;2023-03-23T02:30:19;99275.69;;;12.75
42197;BMP280;27866;48.146;17.098;2023-03-23T02:34:49;99276.19;;;12.70
42197;BMP280;27866;48.146;17.098;2023-03-23T02:39:19;99275.41;;;12.69
42197;BMP280;27866;48.146;17.098;2023-03-23T02:43:40;99273.03;;;12.66
42197;BMP280;27866;48.146;17.098;2023-03-23T02:47:54;99268.22;;;12.62
42197;BMP280;27866;48.146;17.098;2023-03-23T02:52:11;99274.38;;;12.61
42197;BMP280;27866;48.146;17.098;2023-03-23T02:56:28;99275.31;;;12.60
42197;BMP280;27866;48.146;17.098;2023-03-23T03:00:41;99276.44;;;12.47
42197;BMP280;27866;48.146;17.098;2023-03-23T03:14:04;99278.75;;;12.41
42197;BMP280;27866;48.146;17.098;2023-03-23T03:18:41;99273.78;;;12.38
42197;BMP280;27866;48.146;17.098;2023-03-23T03:22:56;99277.47;;;12.35
42197;BMP280;27866;48.146;17.098;2023-03-23T03:27:17;99277.56;;;12.34
42197;BMP280;27866;48.146;17.098;2023-03-23T03:31:37;99272.38;;;12.34
42197;BMP280;27866;48.146;17.098;2023-03-23T03:35:50;99272.66;;;12.31
42197;BMP280;27866;48.146;17.098;2023-03-23T03:40:02;99274.03;;;12.35
42197;BMP280;27866;48.146;17.098;2023-03-23T03:44:14;99280.63;;;12.39
42197;BMP280;27866;48.146;17.098;2023-03-23T03:48:26;99273.09;;;12.36
42197;BMP280;27866;48.146;17.098;2023-03-23T03:52:38;99280.88;;;12.36
42197;BMP280;27866;48.146;17.098;2023-03-23T03:56:52;99287.25;;;12.32
42197;BMP280;27866;48.146;17.098;2023-03-23T04:01:27;99279.03;;;12.27
42197;BMP280;27866;48.146;17.098;2023-03-23T04:05:39;99291.88;;;12.29
42197;BMP280;27866;48.146;17.098;2023-03-23T04:09:54;99286.56;;;12.30
42197;BMP280;27866;48.146;17.098;2023-03-23T04:14:06;99291.31;;;12.25
42197;BMP280;27866;48.146;17.098;2023-03-23T04:18:26;99295.34;;;12.18
42197;BMP280;27866;48.146;17.098;2023-03-23T04:22:39;99291.13;;;12.17
42197;BMP280;27866;48.146;17.098;2023-03-23T04:26:51;99288.41;;;12.19
42197;BMP280;27866;48.146;17.098;2023-03-23T04:31:10;99292.66;;;12.20
42197;BMP280;27866;48.146;17.098;2023-03-23T04:35:27;99300.19;;;12.23
42197;BMP280;27866;48.146;17.098;2023-03-23T04:39:57;99296.50;;;12.25
42197;BMP280;27866;48.146;17.098;2023-03-23T04:44:14;99289.16;;;12.30
42197;BMP280;27866;48.146;17.098;2023-03-23T04:48:32;99276.25;;;12.39
42197;BMP280;27866;48.146;17.098;2023-03-23T04:53:03;99286.25;;;12.44
42197;BMP280;27866;48.146;17.098;2023-03-23T04:57:15;99295.66;;;12.55
42197;BMP280;27866;48.146;17.098;2023-03-23T05:01:35;99298.00;;;12.58
42197;BMP280;27866;48.146;17.098;2023-03-23T05:06:14;99288.88;;;12.63
42197;BMP280;27866;48.146;17.098;2023-03-23T05:10:27;99286.16;;;12.65
42197;BMP280;27866;48.146;17.098;2023-03-23T05:14:44;99295.66;;;12.75
42197;BMP280;27866;48.146;17.098;2023-03-23T05:18:59;99308.06;;;12.91
42197;BMP280;27866;48.146;17.098;2023-03-23T05:23:13;99301.31;;;13.09
42197;BMP280;27866;48.146;17.098;2023-03-23T05:27:26;99298.91;;;13.26
42197;BMP280;27866;48.146;17.098;2023-03-23T05:31:43;99303.75;;;13.39
42197;BMP280;27866;48.146;17.098;2023-03-23T05:35:54;99296.38;;;13.53
42197;BMP280;27866;48.146;17.098;2023-03-23T05:40:12;99306.97;;;13.70
42197;BMP280;27866;48.146;17.098;2023-03-23T05:44:28;99299.22;;;13.89
42197;BMP280;27866;48.146;17.098;2023-03-23T05:48:43;99313.34;;;14.14
42197;BMP280;27866;48.146;17.098;2023-03-23T05:53:00;99320.91;;;14.35
42197;BMP280;27866;48.146;17.098;2023-03-23T05:57:11;99306.75;;;14.56
42197;BMP280;27866;48.146;17.098;2023-03-23T06:01:32;99313.03;;;14.72
42197;BMP280;27866;48.146;17.098;2023-03-23T06:05:44;99313.84;;;15.00
42197;BMP280;27866;48.146;17.098;2023-03-23T06:09:58;99325.91;;;16.73
42197;BMP280;27866;48.146;17.098;2023-03-23T06:14:09;99308.03;;;18.54
42197;BMP280;27866;48.146;17.098;2023-03-23T06:18:20;99317.50;;;19.32
42197;BMP280;27866;48.146;17.098;2023-03-23T06:22:58;99316.03;;;20.12
42197;BMP280;27866;48.146;17.098;2023-03-23T06:27:13;99313.81;;;21.52
42197;BMP280;27866;48.146;17.098;2023-03-23T06:31:28;99313.03;;;22.89
42197;BMP280;27866;48.146;17.098;2023-03-23T06:35:40;99305.47;;;23.59
42197;BMP280;27866;48.146;17.098;2023-03-23T06:40:13;99317.19;;;22.36
42197;BMP280;27866;48.146;17.098;2023-03-23T06:44:29;99310.31;;;21.87
42197;BMP280;27866;48.146;17.098;2023-03-23T06:48:41;99310.22;;;21.81
42197;BMP280;27866;48.146;17.098;2023-03-23T06:52:56;99319.44;;;22.53
42197;BMP280;27866;48.146;17.098;2023-03-23T06:57:08;99318.16;;;22.50
42197;BMP280;27866;48.146;17.098;2023-03-23T07:01:20;99318.38;;;21.16
42197;BMP280;27866;48.146;17.098;2023-03-23T07:05:39;99327.41;;;18.99
42197;BMP280;27866;48.146;17.098;2023-03-23T07:09:53;99335.03;;;18.23
42197;BMP280;27866;48.146;17.098;2023-03-23T07:14:08;99334.56;;;18.20
42197;BMP280;27866;48.146;17.098;2023-03-23T07:18:21;99351.28;;;18.42
42197;BMP280;27866;48.146;17.098;2023-03-23T07:22:34;99337.03;;;19.82
42197;BMP280;27866;48.146;17.098;2023-03-23T07:26:54;99329.16;;;19.82
42197;BMP280;27866;48.146;17.098;2023-03-23T07:31:06;99328.97;;;19.46
42197;BMP280;27866;48.146;17.098;2023-03-23T07:35:19;99316.50;;;19.41
42197;BMP280;27866;48.146;17.098;2023-03-23T07:39:51;99334.69;;;19.58
42197;BMP280;27866;48.146;17.098;2023-03-23T07:44:05;99335.34;;;19.97
42197;BMP280;27866;48.146;17.098;2023-03-23T07:48:20;99332.34;;;19.70
42197;BMP280;27866;48.146;17.098;2023-03-23T07:52:33;99327.56;;;20.03
42197;BMP280;27866;48.146;17.098;2023-03-23T07:56:45;99331.72;;;19.98
42197;BMP280;27866;48.146;17.098;2023-03-23T08:01:00;99329.13;;;19.90
42197;BMP280;27866;48.146;17.098;2023-03-23T08:05:16;99330.88;;;19.97
42197;BMP280;27866;48.146;17.098;2023-03-23T08:09:47;99327.47;;;19.52
42197;BMP280;27866;48.146;17.098;2023-03-23T08:14:08;99341.16;;;19.24
42197;BMP280;27866;48.146;17.098;2023-03-23T08:18:38;99342.63;;;19.27
42197;BMP280;27866;48.146;17.098;2023-03-23T08:22:53;99346.31;;;19.63
42197;BMP280;27866;48.146;17.098;2023-03-23T08:27:29;99351.13;;;19.97
42197;BMP280;27866;48.146;17.098;2023-03-23T08:32:00;99341.63;;;20.69
42197;BMP280;27866;48.146;17.098;2023-03-23T08:36:13;99352.09;;;20.98
42197;BMP280;27866;48.146;17.098;2023-03-23T08:40:48;99341.59;;;22.24
42197;BMP280;27866;48.146;17.098;2023-03-23T08:45:39;99340.53;;;24.07
42197;BMP280;27866;48.146;17.098;2023-03-23T08:50:26;99348.03;;;22.70
42197;BMP280;27866;48.146;17.098;2023-03-23T08:54:57;99351.81;;;22.13
42197;BMP280;27866;48.146;17.098;2023-03-23T08:59:15;99349.28;;;22.40
42197;BMP280;27866;48.146;17.098;2023-03-23T09:03:38;99343.09;;;22.33
42197;BMP280;27866;48.146;17.098;2023-03-23T09:08:09;99335.78;;;22.90
42197;BMP280;27866;48.146;17.098;2023-03-23T09:12:20;99340.28;;;22.89
42197;BMP280;27866;48.146;17.098;2023-03-23T09:16:32;99343.88;;;23.82
42197;BMP280;27866;48.146;17.098;2023-03-23T09:20:45;99341.00;;;25.12
42197;BMP280;27866;48.146;17.098;2023-03-23T09:24:57;99345.81;;;28.92
42197;BMP280;27866;48.146;17.098;2023-03-23T09:29:08;99347.44;;;32.35
42197;BMP280;27866;48.146;17.098;2023-03-23T09:33:20;99347.22;;;30.50
42197;BMP280;27866;48.146;17.098;2023-03-23T09:37:31;99340.53;;;29.14
42197;BMP280;27866;48.146;17.098;2023-03-23T09:42:19;99341.94;;;27.79
42197;BMP280;27866;48.146;17.098;2023-03-23T09:47:01;99357.75;;;29.01
42197;BMP280;27866;48.146;17.098;2023-03-23T09:55:29;99354.47;;;38.74
42197;BMP280;27866;48.146;17.098;2023-03-23T09:59:51;99338.63;;;38.86
42197;BMP280;27866;48.146;17.098;2023-03-23T10:04:10;99336.81;;;39.79
42197;BMP280;27866;48.146;17.098;2023-03-23T10:08:26;99330.66;;;40.83
42197;BMP280;27866;48.146;17.098;2023-03-23T10:12:52;99330.09;;;41.63
42197;BMP280;27866;48.146;17.098;2023-03-23T10:17:29;99325.13;;;40.36
42197;BMP280;27866;48.146;17.098;2023-03-23T10:21:48;99323.97;;;41.79
42197;BMP280;27866;48.146;17.098;2023-03-23T10:30:57;99322.22;;;41.19
42197;BMP280;27866;48.146;17.098;2023-03-23T10:35:28;99306.03;;;42.08
42197;BMP280;27866;48.146;17.098;2023-03-23T10:39:57;99294.06;;;41.58
42197;BMP280;27866;48.146;17.098;2023-03-23T10:44:21;99294.13;;;41.96
42197;BMP280;27866;48.146;17.098;2023-03-23T10:48:38;99290.75;;;41.26
42197;BMP280;27866;48.146;17.098;2023-03-23T10:52:51;99286.22;;;41.01
42197;BMP280;27866;48.146;17.098;2023-03-23T10:57:29;99288.19;;;40.87
42197;BMP280;27866;48.146;17.098;2023-03-23T11:01:44;99269.19;;;41.08
42197;BMP280;27866;48.146;17.098;2023-03-23T11:06:03;99271.16;;;41.59
42197;BMP280;27866;48.146;17.098;2023-03-23T11:10:28;99279.38;;;41.03
42197;BMP280;27866;48.146;17.098;2023-03-23T11:14:45;99280.19;;;40.30
42197;BMP280;27866;48.146;17.098;2023-03-23T11:18:59;99277.63;;;39.68
42197;BMP280;27866;48.146;17.098;2023-03-23T11:23:26;99265.41;;;40.62
42197;BMP280;27866;48.146;17.098;2023-03-23T11:27:38;99259.22;;;41.04
42197;BMP280;27866;48.146;17.098;2023-03-23T11:36:17;99239.47;;;40.43
42197;BMP280;27866;48.146;17.098;2023-03-23T11:40:32;99240.78;;;39.36
42197;BMP280;27866;48.146;17.098;2023-03-23T11:44:44;99234.78;;;39.39
42197;BMP280;27866;48.146;17.098;2023-03-23T11:49:05;99230.34;;;40.00
42197;BMP280;27866;48.146;17.098;2023-03-23T11:53:58;99220.47;;;40.30
42197;BMP280;27866;48.146;17.098;2023-03-23T11:58:15;99209.81;;;41.02
42197;BMP280;27866;48.146;17.098;2023-03-23T12:02:46;99204.72;;;40.06
42197;BMP280;27866;48.146;17.098;2023-03-23T12:26:30;99177.75;;;39.13
42197;BMP280;27866;48.146;17.098;2023-03-23T12:58:27;99147.78;;;30.33
42197;BMP280;27866;48.146;17.098;2023-03-23T13:08:01;99137.25;;;28.79
42197;BMP280;27866;48.146;17.098;2023-03-23T13:12:15;99138.38;;;29.38
42197;BMP280;27866;48.146;17.098;2023-03-23T13:16:55;99141.81;;;30.90
42197;BMP280;27866;48.146;17.098;2023-03-23T13:21:40;99138.50;;;32.03
42197;BMP280;27866;48.146;17.098;2023-03-23T13:26:06;99126.09;;;33.15
42197;BMP280;27866;48.146;17.098;2023-03-23T13:30:21;99120.22;;;32.52
42197;BMP280;27866;48.146;17.098;2023-03-23T13:34:35;99114.66;;;32.88
42197;BMP280;27866;48.146;17.098;2023-03-23T13:38:49;99106.97;;;32.36
42197;BMP280;27866;48.146;17.098;2023-03-23T13:43:01;99105.97;;;33.67
42197;BMP280;27866;48.146;17.098;2023-03-23T13:51:52;99107.75;;;35.03
42197;BMP280;27866;48.146;17.098;2023-03-23T13:56:32;99095.16;;;37.77
42197;BMP280;27866;48.146;17.098;2023-03-23T14:01:00;99087.59;;;38.15
42197;BMP280;27866;48.146;17.098;2023-03-23T14:05:37;99102.97;;;36.51
42197;BMP280;27866;48.146;17.098;2023-03-23T14:09:49;99095.13;;;36.86
42197;BMP280;27866;48.146;17.098;2023-03-23T14:18:16;99077.56;;;38.51
42197;BMP280;27866;48.146;17.098;2023-03-23T14:22:36;99078.81;;;37.69
42197;BMP280;27866;48.146;17.098;2023-03-23T14:26:52;99066.16;;;37.19
42197;BMP280;27866;48.146;17.098;2023-03-23T14:31:05;99065.13;;;36.33
42197;BMP280;27866;48.146;17.098;2023-03-23T14:35:29;99068.72;;;34.91
42197;BMP280;27866;48.146;17.098;2023-03-23T14:39:46;99070.81;;;32.13
42197;BMP280;27866;48.146;17.098;2023-03-23T14:44:01;99076.97;;;31.41
42197;BMP280;27866;48.146;17.098;2023-03-23T14:48:15;99074.94;;;33.35
42197;BMP280;27866;48.146;17.098;2023-03-23T14:52:32;99076.00;;;34.08
42197;BMP280;27866;48.146;17.098;2023-03-23T14:56:43;99083.00;;;34.67
42197;BMP280;27866;48.146;17.098;2023-03-23T15:01:09;99076.66;;;35.49
42197;BMP280;27866;48.146;17.098;2023-03-23T15:05:37;99080.22;;;35.25
42197;BMP280;27866;48.146;17.098;2023-03-23T15:09:50;99081.94;;;34.49
42197;BMP280;27866;48.146;17.098;2023-03-23T15:14:20;99074.13;;;32.85
42197;BMP280;27866;48.146;17.098;2023-03-23T15:18:37;99076.50;;;30.70
42197;BMP280;27866;48.146;17.098;2023-03-23T15:22:50;99083.81;;;28.85
42197;BMP280;27866;48.146;17.098;2023-03-23T15:27:28;99071.97;;;28.26
42197;BMP280;27866;48.146;17.098;2023-03-23T15:31:55;99069.50;;;28.02
42197;BMP280;27866;48.146;17.098;2023-03-23T15:36:17;99071.34;;;28.63
42197;BMP280;27866;48.146;17.098;2023-03-23T15:40:37;99066.75;;;28.08
42197;BMP280;27866;48.146;17.098;2023-03-23T15:45:16;99071.88;;;27.35
42197;BMP280;27866;48.146;17.098;2023-03-23T15:49:28;99069.19;;;26.48
42197;BMP280;27866;48.146;17.098;2023-03-23T15:53:40;99074.66;;;25.76
42197;BMP280;27866;48.146;17.098;2023-03-23T15:57:55;99073.28;;;25.31
42197;BMP280;27866;48.146;17.098;2023-03-23T16:02:12;99078.53;;;24.82
42197;BMP280;27866;48.146;17.098;2023-03-23T16:06:29;99079.19;;;24.59
42197;BMP280;27866;48.146;17.098;2023-03-23T16:10:40;99075.75;;;24.46
42197;BMP280;27866;48.146;17.098;2023-03-23T16:14:52;99081.84;;;24.21
42197;BMP280;27866;48.146;17.098;2023-03-23T16:19:04;99071.88;;;23.85
42197;BMP280;27866;48.146;17.098;2023-03-23T16:23:16;99069.56;;;23.64
42197;BMP280;27866;48.146;17.098;2023-03-23T16:27:28;99067.94;;;23.56
42197;BMP280;27866;48.146;17.098;2023-03-23T16:31:39;99072.78;;;23.47
42197;BMP280;27866;48.146;17.098;2023-03-23T16:35:50;99080.47;;;23.36
42197;BMP280;27866;48.146;17.098;2023-03-23T16:40:04;99070.72;;;23.23
42197;BMP280;27866;48.146;17.098;2023-03-23T16:44:15;99084.72;;;22.85
42197;BMP280;27866;48.146;17.098;2023-03-23T16:48:27;99087.75;;;22.49
42197;BMP280;27866;48.146;17.098;2023-03-23T16:52:40;99092.94;;;22.16
42197;BMP280;27866;48.146;17.098;2023-03-23T16:56:51;99087.81;;;22.08
42197;BMP280;27866;48.146;17.098;2023-03-23T17:01:03;99089.63;;;21.81
42197;BMP280;27866;48.146;17.098;2023-03-23T17:05:19;99096.81;;;21.39
42197;BMP280;27866;48.146;17.098;2023-03-23T17:09:32;99109.09;;;21.12
42197;BMP280;27866;48.146;17.098;2023-03-23T17:13:44;99101.09;;;21.19
42197;BMP280;27866;48.146;17.098;2023-03-23T17:17:55;99103.69;;;20.91
42197;BMP280;27866;48.146;17.098;2023-03-23T17:22:06;99109.63;;;20.65
42197;BMP280;27866;48.146;17.098;2023-03-23T17:26:18;99117.94;;;20.41
42197;BMP280;27866;48.146;17.098;2023-03-23T17:30:29;99120.19;;;20.30
42197;BMP280;27866;48.146;17.098;2023-03-23T17:34:41;99120.94;;;20.16
42197;BMP280;27866;48.146;17.098;2023-03-23T17:38:52;99118.88;;;20.12
42197;BMP280;27866;48.146;17.098;2023-03-23T17:43:03;99120.75;;;20.03
42197;BMP280;27866;48.146;17.098;2023-03-23T17:47:15;99125.84;;;19.83
42197;BMP280;27866;48.146;17.098;2023-03-23T17:51:26;99133.34;;;19.72
42197;BMP280;27866;48.146;17.098;2023-03-23T17:55:37;99131.78;;;19.56
42197;BMP280;27866;48.146;17.098;2023-03-23T17:59:51;99140.84;;;19.53
42197;BMP280;27866;48.146;17.098;2023-03-23T18:04:02;99147.59;;;19.48
42197;BMP280;27866;48.146;17.098;2023-03-23T18:08:16;99139.25;;;19.37
42197;BMP280;27866;48.146;17.098;2023-03-23T18:12:28;99134.34;;;19.42
42197;BMP280;27866;48.146;17.098;2023-03-23T18:16:39;99116.63;;;19.36
42197;BMP280;27866;48.146;17.098;2023-03-23T18:21:03;99136.72;;;19.21
42197;BMP280;27866;48.146;17.098;2023-03-23T18:25:15;99134.41;;;19.26
42197;BMP280;27866;48.146;17.098;2023-03-23T18:29:26;99145.22;;;19.23
42197;BMP280;27866;48.146;17.098;2023-03-23T18:33:39;99163.03;;;19.14
42197;BMP280;27866;48.146;17.098;2023-03-23T18:37:52;99164.53;;;19.00
42197;BMP280;27866;48.146;17.098;2023-03-23T18:42:04;99162.75;;;18.93
42197;BMP280;27866;48.146;17.098;2023-03-23T18:46:16;99160.34;;;18.84
42197;BMP280;27866;48.146;17.098;2023-03-23T18:50:27;99167.28;;;18.70
42197;BMP280;27866;48.146;17.098;2023-03-23T18:54:38;99165.81;;;18.67
42197;BMP280;27866;48.146;17.098;2023-03-23T18:58:52;99163.19;;;18.59
42197;BMP280;27866;48.146;17.098;2023-03-23T19:03:04;99174.19;;;18.47
42197;BMP280;27866;48.146;17.098;2023-03-23T19:07:16;99165.69;;;18.38
42197;BMP280;27866;48.146;17.098;2023-03-23T19:11:28;99168.44;;;18.36
42197;BMP280;27866;48.146;17.098;2023-03-23T19:15:39;99173.53;;;18.30
42197;BMP280;27866;48.146;17.098;2023-03-23T19:19:51;99171.25;;;18.19
42197;BMP280;27866;48.146;17.098;2023-03-23T19:24:03;99178.13;;;18.05
42197;BMP280;27866;48.146;17.098;2023-03-23T19:28:15;99179.44;;;17.93
42197;BMP280;27866;48.146;17.098;2023-03-23T19:32:26;99171.09;;;17.82
42197;BMP280;27866;48.146;17.098;2023-03-23T19:36:38;99168.28;;;17.68
42197;BMP280;27866;48.146;17.098;2023-03-23T19:40:58;99172.31;;;17.55
42197;BMP280;27866;48.146;17.098;2023-03-23T19:45:11;99176.91;;;17.45
42197;BMP280;27866;48.146;17.098;2023-03-23T19:49:22;99173.25;;;17.39
42197;BMP280;27866;48.146;17.098;2023-03-23T19:53:34;99174.06;;;17.31
42197;BMP280;27866;48.146;17.098;2023-03-23T19:57:45;99177.97;;;17.27
42197;BMP280;27866;48.146;17.098;2023-03-23T20:01:56;99178.78;;;17.20
42197;BMP280;27866;48.146;17.098;2023-03-23T20:06:11;99184.63;;;17.14
42197;BMP280;27866;48.146;17.098;2023-03-23T20:10:22;99194.09;;;17.15
42197;BMP280;27866;48.146;17.098;2023-03-23T20:14:34;99198.22;;;17.18
42197;BMP280;27866;48.146;17.098;2023-03-23T20:18:45;99206.88;;;17.18
42197;BMP280;27866;48.146;17.098;2023-03-23T20:22:57;99216.34;;;17.11
42197;BMP280;27866;48.146;17.098;2023-03-23T20:27:08;99216.00;;;17.07
42197;BMP280;27866;48.146;17.098;2023-03-23T20:31:29;99217.78;;;17.06
42197;BMP280;27866;48.146;17.098;2023-03-23T20:35:40;99210.75;;;17.07
42197;BMP280;27866;48.146;17.098;2023-03-23T20:39:51;99212.41;;;17.08
42197;BMP280;27866;48.146;17.098;2023-03-23T20:44:05;99211.13;;;17.11
42197;BMP280;27866;48.146;17.098;2023-03-23T20:48:16;99219.31;;;17.16
42197;BMP280;27866;48.146;17.098;2023-03-23T20:52:28;99221.94;;;17.16
42197;BMP280;27866;48.146;17.098;2023-03-23T20:56:39;99222.22;;;17.13
42197;BMP280;27866;48.146;17.098;2023-03-23T21:00:52;99218.31;;;17.17
42197;BMP280;27866;48.146;17.098;2023-03-23T21:05:07;99219.03;;;17.35
42197;BMP280;27866;48.146;17.098;2023-03-23T21:09:19;99223.38;;;17.51
42197;BMP280;27866;48.146;17.098;2023-03-23T21:13:31;99225.69;;;17.62
42197;BMP280;27866;48.146;17.098;2023-03-23T21:17:42;99227.06;;;17.73
42197;BMP280;27866;48.146;17.098;2023-03-23T21:21:55;99217.41;;;17.89
42197;BMP280;27866;48.146;17.098;2023-03-23T21:26:07;99211.22;;;17.98
42197;BMP280;27866;48.146;17.098;2023-03-23T21:30:21;99207.59;;;17.99
42197;BMP280;27866;48.146;17.098;2023-03-23T21:34:32;99210.41;;;17.98
42197;BMP280;27866;48.146;17.098;2023-03-23T21:38:43;99209.72;;;17.96
42197;BMP280;27866;48.146;17.098;2023-03-23T21:42:56;99218.56;;;18.02
42197;BMP280;27866;48.146;17.098;2023-03-23T21:47:08;99210.41;;;18.05
42197;BMP280;27866;48.146;17.098;2023-03-23T21:51:27;99201.88;;;18.11
42197;BMP280;27866;48.146;17.098;2023-03-23T21:55:39;99202.84;;;18.10
42197;BMP280;27866;48.146;17.098;2023-03-23T21:59:53;99206.97;;;18.13
42197;BMP280;27866;48.146;17.098;2023-03-23T22:04:05;99205.47;;;18.10
42197;BMP280;27866;48.146;17.098;2023-03-23T22:08:17;99204.50;;;18.11
42197;BMP280;27866;48.146;17.098;2023-03-23T22:12:30;99204.81;;;18.08
42197;BMP280;27866;48.146;17.098;2023-03-23T22:16:41;99211.88;;;18.00
42197;BMP280;27866;48.146;17.098;2023-03-23T22:20:53;99206.78;;;17.91
42197;BMP280;27866;48.146;17.098;2023-03-23T22:25:05;99215.31;;;17.85
42197;BMP280;27866;48.146;17.098;2023-03-23T22:29:16;99219.22;;;17.81
42197;BMP280;27866;48.146;17.098;2023-03-23T22:33:27;99213.31;;;17.79
42197;BMP280;27866;48.146;17.098;2023-03-23T22:37:39;99196.13;;;17.77
42197;BMP280;27866;48.146;17.098;2023-03-23T22:41:51;99201.16;;;17.70
42197;BMP280;27866;48.146;17.098;2023-03-23T22:46:03;99208.34;;;17.68
42197;BMP280;27866;48.146;17.098;2023-03-23T22:50:15;99195.59;;;17.66
42197;BMP280;27866;48.146;17.098;2023-03-23T22:54:26;99192.59;;;17.61
42197;BMP280;27866;48.146;17.098;2023-03-23T22:58:38;99191.28;;;17.57
42197;BMP280;27866;48.146;17.098;2023-03-23T23:02:50;99186.88;;;17.50
42197;BMP280;27866;48.146;17.098;2023-03-23T23:07:01;99189.81;;;17.47
42197;BMP280;27866;48.146;17.098;2023-03-23T23:11:16;99189.63;;;17.40
42197;BMP280;27866;48.146;17.098;2023-03-23T23:15:28;99184.53;;;17.31
42197;BMP280;27866;48.146;17.098;2023-03-23T23:19:39;99175.13;;;17.13
42197;BMP280;27866;48.146;17.098;2023-03-23T23:23:51;99177.53;;;16.99
42197;BMP280;27866;48.146;17.098;2023-03-23T23:28:04;99178.38;;;17.00
42197;BMP280;27866;48.146;17.098;2023-03-23T23:32:16;99179.38;;;17.07
42197;BMP280;27866;48.146;17.098;2023-03-23T23:36:28;99169.56;;;17.09
42197;BMP280;27866;48.146;17.098;2023-03-23T23:40:41;99157.94;;;17.03
42197;BMP280;27866;48.146;17.098;2023-03-23T23:44:53;99164.09;;;16.95
42197;BMP280;27866;48.146;17.098;2023-03-23T23:49:04;99168.13;;;16.82
42197;BMP280;27866;48.146;17.098;2023-03-23T23:53:16;99174.88;;;16.67
42197;BMP280;27866;48.146;17.098;2023-03-23T23:57:33;99177.78;;;16.56
